sensor_id;sensor_type;location;lat;lon;timestamp;temperature;humidity
3308;DHT22;1666;48.898;9.182;2022-10-17T00:00:37;15.00;40.50
3308;DHT22;1666;48.898;9.182;2022-10-17T00:03:07;15.00;40.50
3308;DHT22;1666;48.898;9.182;2022-10-17T00:05:40;14.90;40.40
3308;DHT22;1666;48.898;9.182;2022-10-17T00:08:11;14.90;41.10
3308;DHT22;1666;48.898;9.182;2022-10-17T00:10:44;14.80;41.30
3308;DHT22;1666;48.898;9.182;2022-10-17T00:13:13;14.80;42.50
3308;DHT22;1666;48.898;9.182;2022-10-17T00:15:43;14.80;42.80
3308;DHT22;1666;48.898;9.182;2022-10-17T00:18:13;14.70;43.30
3308;DHT22;1666;48.898;9.182;2022-10-17T00:20:43;14.70;43.80
3308;DHT22;1666;48.898;9.182;2022-10-17T00:23:13;14.70;44.70
3308;DHT22;1666;48.898;9.182;2022-10-17T00:25:45;14.60;44.70
3308;DHT22;1666;48.898;9.182;2022-10-17T00:28:15;14.60;44.80
3308;DHT22;1666;48.898;9.182;2022-10-17T00:30:45;14.70;44.10
3308;DHT22;1666;48.898;9.182;2022-10-17T00:33:14;14.70;43.60
3308;DHT22;1666;48.898;9.182;2022-10-17T00:35:44;14.70;43.60
3308;DHT22;1666;48.898;9.182;2022-10-17T00:38:14;14.70;43.20
3308;DHT22;1666;48.898;9.182;2022-10-17T00:40:46;14.70;42.60
3308;DHT22;1666;48.898;9.182;2022-10-17T00:43:17;14.70;43.00
3308;DHT22;1666;48.898;9.182;2022-10-17T00:45:46;14.60;43.10
3308;DHT22;1666;48.898;9.182;2022-10-17T00:48:21;14.70;43.30
3308;DHT22;1666;48.898;9.182;2022-10-17T00:50:53;14.70;42.80
3308;DHT22;1666;48.898;9.182;2022-10-17T00:53:23;14.70;43.30
3308;DHT22;1666;48.898;9.182;2022-10-17T00:55:55;14.70;42.70
3308;DHT22;1666;48.898;9.182;2022-10-17T00:58:25;14.70;42.80
3308;DHT22;1666;48.898;9.182;2022-10-17T01:00:55;14.70;42.60
3308;DHT22;1666;48.898;9.182;2022-10-17T01:03:27;14.70;42.40
3308;DHT22;1666;48.898;9.182;2022-10-17T01:05:57;14.70;42.00
3308;DHT22;1666;48.898;9.182;2022-10-17T01:08:27;14.70;42.80
3308;DHT22;1666;48.898;9.182;2022-10-17T01:11:07;14.60;42.90
3308;DHT22;1666;48.898;9.182;2022-10-17T01:13:45;14.70;44.00
3308;DHT22;1666;48.898;9.182;2022-10-17T01:16:25;14.70;44.40
3308;DHT22;1666;48.898;9.182;2022-10-17T01:19:02;14.60;45.00
3308;DHT22;1666;48.898;9.182;2022-10-17T01:21:43;14.50;45.20
3308;DHT22;1666;48.898;9.182;2022-10-17T01:24:45;14.50;46.70
3308;DHT22;1666;48.898;9.182;2022-10-17T01:27:42;14.50;46.90
3308;DHT22;1666;48.898;9.182;2022-10-17T01:33:29;14.40;46.60
3308;DHT22;1666;48.898;9.182;2022-10-17T01:36:06;14.40;45.80
3308;DHT22;1666;48.898;9.182;2022-10-17T01:38:43;14.50;45.80
3308;DHT22;1666;48.898;9.182;2022-10-17T01:41:18;14.50;45.20
3308;DHT22;1666;48.898;9.182;2022-10-17T01:43:57;14.40;45.00
3308;DHT22;1666;48.898;9.182;2022-10-17T01:46:28;14.40;45.00
3308;DHT22;1666;48.898;9.182;2022-10-17T01:49:04;14.50;44.60
3308;DHT22;1666;48.898;9.182;2022-10-17T01:51:37;14.40;44.20
3308;DHT22;1666;48.898;9.182;2022-10-17T01:54:11;14.40;44.30
3308;DHT22;1666;48.898;9.182;2022-10-17T01:56:43;14.40;45.00
3308;DHT22;1666;48.898;9.182;2022-10-17T01:59:18;14.30;45.00
3308;DHT22;1666;48.898;9.182;2022-10-17T02:01:51;14.20;45.10
3308;DHT22;1666;48.898;9.182;2022-10-17T02:04:25;14.20;45.20
3308;DHT22;1666;48.898;9.182;2022-10-17T02:06:55;14.00;45.60
3308;DHT22;1666;48.898;9.182;2022-10-17T02:09:25;13.80;45.40
3308;DHT22;1666;48.898;9.182;2022-10-17T02:12:06;13.70;46.90
3308;DHT22;1666;48.898;9.182;2022-10-17T02:14:49;13.60;47.50
3308;DHT22;1666;48.898;9.182;2022-10-17T02:17:30;13.40;48.40
3308;DHT22;1666;48.898;9.182;2022-10-17T02:20:09;13.30;49.30
3308;DHT22;1666;48.898;9.182;2022-10-17T02:22:48;13.40;50.80
3308;DHT22;1666;48.898;9.182;2022-10-17T02:25:26;13.40;51.20
3308;DHT22;1666;48.898;9.182;2022-10-17T02:28:03;13.30;51.90
3308;DHT22;1666;48.898;9.182;2022-10-17T02:30:40;13.40;52.50
3308;DHT22;1666;48.898;9.182;2022-10-17T02:33:15;13.50;52.50
3308;DHT22;1666;48.898;9.182;2022-10-17T02:35:53;13.60;52.70
3308;DHT22;1666;48.898;9.182;2022-10-17T02:38:27;13.60;52.70
3308;DHT22;1666;48.898;9.182;2022-10-17T02:40:59;13.60;52.60
3308;DHT22;1666;48.898;9.182;2022-10-17T02:43:29;13.60;52.50
3308;DHT22;1666;48.898;9.182;2022-10-17T02:45:59;13.60;52.50
3308;DHT22;1666;48.898;9.182;2022-10-17T02:48:35;13.60;52.60
3308;DHT22;1666;48.898;9.182;2022-10-17T02:51:14;13.60;51.60
3308;DHT22;1666;48.898;9.182;2022-10-17T02:53:54;13.60;51.50
3308;DHT22;1666;48.898;9.182;2022-10-17T02:56:27;13.50;50.80
3308;DHT22;1666;48.898;9.182;2022-10-17T02:58:59;13.40;50.40
3308;DHT22;1666;48.898;9.182;2022-10-17T03:01:30;13.30;50.40
3308;DHT22;1666;48.898;9.182;2022-10-17T03:04:05;13.20;50.80
3308;DHT22;1666;48.898;9.182;2022-10-17T03:06:37;13.10;50.70
3308;DHT22;1666;48.898;9.182;2022-10-17T03:09:08;13.10;51.10
3308;DHT22;1666;48.898;9.182;2022-10-17T03:11:37;13.00;51.30
3308;DHT22;1666;48.898;9.182;2022-10-17T03:14:07;13.00;51.70
3308;DHT22;1666;48.898;9.182;2022-10-17T03:16:37;12.90;51.80
3308;DHT22;1666;48.898;9.182;2022-10-17T03:19:07;12.90;52.20
3308;DHT22;1666;48.898;9.182;2022-10-17T03:21:39;12.80;52.10
3308;DHT22;1666;48.898;9.182;2022-10-17T03:24:09;12.80;52.50
3308;DHT22;1666;48.898;9.182;2022-10-17T03:26:39;12.90;53.60
3308;DHT22;1666;48.898;9.182;2022-10-17T03:29:09;13.00;53.90
3308;DHT22;1666;48.898;9.182;2022-10-17T03:31:39;13.00;54.80
3308;DHT22;1666;48.898;9.182;2022-10-17T03:34:08;13.10;55.30
3308;DHT22;1666;48.898;9.182;2022-10-17T03:36:41;13.10;55.30
3308;DHT22;1666;48.898;9.182;2022-10-17T03:39:10;13.10;55.60
3308;DHT22;1666;48.898;9.182;2022-10-17T03:41:40;13.10;54.80
3308;DHT22;1666;48.898;9.182;2022-10-17T03:44:10;13.00;54.60
3308;DHT22;1666;48.898;9.182;2022-10-17T03:46:40;12.90;54.40
3308;DHT22;1666;48.898;9.182;2022-10-17T03:49:10;13.00;55.20
3308;DHT22;1666;48.898;9.182;2022-10-17T03:51:42;13.00;55.70
3308;DHT22;1666;48.898;9.182;2022-10-17T03:54:12;13.00;56.00
3308;DHT22;1666;48.898;9.182;2022-10-17T03:56:42;13.00;56.20
3308;DHT22;1666;48.898;9.182;2022-10-17T03:59:12;13.10;56.20
3308;DHT22;1666;48.898;9.182;2022-10-17T04:01:42;13.10;56.20
3308;DHT22;1666;48.898;9.182;2022-10-17T04:04:12;13.10;56.20
3308;DHT22;1666;48.898;9.182;2022-10-17T04:06:45;13.10;56.20
3308;DHT22;1666;48.898;9.182;2022-10-17T04:09:14;13.10;56.20
3308;DHT22;1666;48.898;9.182;2022-10-17T04:11:44;13.10;56.20
3308;DHT22;1666;48.898;9.182;2022-10-17T04:14:14;13.20;56.20
3308;DHT22;1666;48.898;9.182;2022-10-17T04:16:44;13.20;55.80
3308;DHT22;1666;48.898;9.182;2022-10-17T04:19:13;13.30;56.00
3308;DHT22;1666;48.898;9.182;2022-10-17T04:21:46;13.30;54.90
3308;DHT22;1666;48.898;9.182;2022-10-17T04:24:16;13.30;54.30
3308;DHT22;1666;48.898;9.182;2022-10-17T04:26:48;13.40;53.30
3308;DHT22;1666;48.898;9.182;2022-10-17T04:29:19;13.50;52.50
3308;DHT22;1666;48.898;9.182;2022-10-17T04:31:49;13.50;51.30
3308;DHT22;1666;48.898;9.182;2022-10-17T04:34:18;13.50;51.20
3308;DHT22;1666;48.898;9.182;2022-10-17T04:36:51;13.50;50.80
3308;DHT22;1666;48.898;9.182;2022-10-17T04:39:20;13.50;50.90
3308;DHT22;1666;48.898;9.182;2022-10-17T04:41:50;13.50;50.80
3308;DHT22;1666;48.898;9.182;2022-10-17T04:44:21;13.50;50.60
3308;DHT22;1666;48.898;9.182;2022-10-17T04:46:51;13.40;50.90
3308;DHT22;1666;48.898;9.182;2022-10-17T04:49:20;13.40;51.10
3308;DHT22;1666;48.898;9.182;2022-10-17T04:51:53;13.40;51.40
3308;DHT22;1666;48.898;9.182;2022-10-17T04:54:22;13.40;51.80
3308;DHT22;1666;48.898;9.182;2022-10-17T04:56:52;13.40;51.90
3308;DHT22;1666;48.898;9.182;2022-10-17T04:59:22;13.40;52.00
3308;DHT22;1666;48.898;9.182;2022-10-17T05:01:52;13.40;52.60
3308;DHT22;1666;48.898;9.182;2022-10-17T05:04:21;13.40;51.90
3308;DHT22;1666;48.898;9.182;2022-10-17T05:06:55;13.40;51.90
3308;DHT22;1666;48.898;9.182;2022-10-17T05:09:25;13.40;51.60
3308;DHT22;1666;48.898;9.182;2022-10-17T05:11:55;13.30;51.60
3308;DHT22;1666;48.898;9.182;2022-10-17T05:14:25;13.40;52.40
3308;DHT22;1666;48.898;9.182;2022-10-17T05:16:55;13.30;52.10
3308;DHT22;1666;48.898;9.182;2022-10-17T05:19:24;13.30;52.40
3308;DHT22;1666;48.898;9.182;2022-10-17T05:21:57;13.30;52.40
3308;DHT22;1666;48.898;9.182;2022-10-17T05:24:26;13.30;52.40
3308;DHT22;1666;48.898;9.182;2022-10-17T05:26:56;13.30;52.40
3308;DHT22;1666;48.898;9.182;2022-10-17T05:29:26;13.20;52.30
3308;DHT22;1666;48.898;9.182;2022-10-17T05:31:56;13.30;52.50
3308;DHT22;1666;48.898;9.182;2022-10-17T05:34:45;13.30;52.50
3308;DHT22;1666;48.898;9.182;2022-10-17T05:37:18;13.30;52.10
3308;DHT22;1666;48.898;9.182;2022-10-17T05:39:47;13.30;51.70
3308;DHT22;1666;48.898;9.182;2022-10-17T05:42:17;13.30;51.40
3308;DHT22;1666;48.898;9.182;2022-10-17T05:44:47;13.40;51.20
3308;DHT22;1666;48.898;9.182;2022-10-17T05:47:17;13.40;51.10
3308;DHT22;1666;48.898;9.182;2022-10-17T05:49:47;13.40;50.40
3308;DHT22;1666;48.898;9.182;2022-10-17T05:52:21;13.40;49.90
3308;DHT22;1666;48.898;9.182;2022-10-17T05:54:50;13.40;50.60
3308;DHT22;1666;48.898;9.182;2022-10-17T05:57:20;13.40;50.50
3308;DHT22;1666;48.898;9.182;2022-10-17T05:59:52;13.40;50.80
3308;DHT22;1666;48.898;9.182;2022-10-17T06:02:22;13.40;49.60
3308;DHT22;1666;48.898;9.182;2022-10-17T06:04:52;13.40;49.20
3308;DHT22;1666;48.898;9.182;2022-10-17T06:07:27;13.50;49.10
3308;DHT22;1666;48.898;9.182;2022-10-17T06:09:57;13.50;48.60
3308;DHT22;1666;48.898;9.182;2022-10-17T06:12:27;13.60;48.60
3308;DHT22;1666;48.898;9.182;2022-10-17T06:14:57;13.60;47.60
3308;DHT22;1666;48.898;9.182;2022-10-17T06:17:27;13.60;46.60
3308;DHT22;1666;48.898;9.182;2022-10-17T06:19:57;13.70;45.30
3308;DHT22;1666;48.898;9.182;2022-10-17T06:22:29;13.80;44.60
3308;DHT22;1666;48.898;9.182;2022-10-17T06:24:59;13.70;44.50
3308;DHT22;1666;48.898;9.182;2022-10-17T06:27:29;13.80;43.50
3308;DHT22;1666;48.898;9.182;2022-10-17T06:29:58;13.90;42.20
3308;DHT22;1666;48.898;9.182;2022-10-17T06:32:28;13.90;39.90
3308;DHT22;1666;48.898;9.182;2022-10-17T06:34:58;14.00;38.70
3308;DHT22;1666;48.898;9.182;2022-10-17T06:37:38;14.00;38.30
3308;DHT22;1666;48.898;9.182;2022-10-17T06:40:09;14.00;38.10
3308;DHT22;1666;48.898;9.182;2022-10-17T06:42:41;14.00;37.40
3308;DHT22;1666;48.898;9.182;2022-10-17T06:45:11;14.00;37.70
3308;DHT22;1666;48.898;9.182;2022-10-17T06:47:40;14.00;37.90
3308;DHT22;1666;48.898;9.182;2022-10-17T06:50:10;14.10;36.50
3308;DHT22;1666;48.898;9.182;2022-10-17T06:52:42;14.20;36.50
3308;DHT22;1666;48.898;9.182;2022-10-17T06:55:13;14.30;35.50
3308;DHT22;1666;48.898;9.182;2022-10-17T06:57:48;14.30;35.30
3308;DHT22;1666;48.898;9.182;2022-10-17T07:00:18;14.30;32.60
3308;DHT22;1666;48.898;9.182;2022-10-17T07:02:49;14.50;33.30
3308;DHT22;1666;48.898;9.182;2022-10-17T07:05:18;14.60;32.00
3308;DHT22;1666;48.898;9.182;2022-10-17T07:07:51;14.60;30.90
3308;DHT22;1666;48.898;9.182;2022-10-17T07:10:21;14.70;30.50
3308;DHT22;1666;48.898;9.182;2022-10-17T07:12:50;14.70;30.20
3308;DHT22;1666;48.898;9.182;2022-10-17T07:15:20;14.80;29.50
3308;DHT22;1666;48.898;9.182;2022-10-17T07:17:50;14.80;28.80
3308;DHT22;1666;48.898;9.182;2022-10-17T07:20:20;14.80;28.70
3308;DHT22;1666;48.898;9.182;2022-10-17T07:22:52;14.80;28.00
3308;DHT22;1666;48.898;9.182;2022-10-17T07:25:22;15.00;28.80
3308;DHT22;1666;48.898;9.182;2022-10-17T07:27:52;15.10;27.60
3308;DHT22;1666;48.898;9.182;2022-10-17T07:30:22;15.10;26.50
3308;DHT22;1666;48.898;9.182;2022-10-17T07:32:52;15.20;25.60
3308;DHT22;1666;48.898;9.182;2022-10-17T07:35:22;15.30;25.00
3308;DHT22;1666;48.898;9.182;2022-10-17T07:37:55;15.40;23.20
3308;DHT22;1666;48.898;9.182;2022-10-17T07:40:25;15.50;21.50
3308;DHT22;1666;48.898;9.182;2022-10-17T07:42:54;15.50;21.70
3308;DHT22;1666;48.898;9.182;2022-10-17T07:45:24;15.60;20.70
3308;DHT22;1666;48.898;9.182;2022-10-17T07:47:56;15.80;19.70
3308;DHT22;1666;48.898;9.182;2022-10-17T07:50:26;15.80;19.00
3308;DHT22;1666;48.898;9.182;2022-10-17T07:52:59;15.90;20.10
3308;DHT22;1666;48.898;9.182;2022-10-17T07:55:30;16.10;19.20
3308;DHT22;1666;48.898;9.182;2022-10-17T07:58:00;16.20;19.20
3308;DHT22;1666;48.898;9.182;2022-10-17T08:00:30;16.30;17.70
3308;DHT22;1666;48.898;9.182;2022-10-17T08:03:01;16.40;17.60
3308;DHT22;1666;48.898;9.182;2022-10-17T08:05:32;16.40;16.30
3308;DHT22;1666;48.898;9.182;2022-10-17T08:08:04;16.60;16.00
3308;DHT22;1666;48.898;9.182;2022-10-17T08:10:34;16.70;13.90
3308;DHT22;1666;48.898;9.182;2022-10-17T08:13:04;16.80;12.40
3308;DHT22;1666;48.898;9.182;2022-10-17T08:15:37;16.90;12.50
3308;DHT22;1666;48.898;9.182;2022-10-17T08:18:07;17.00;11.70
3308;DHT22;1666;48.898;9.182;2022-10-17T08:20:37;17.10;10.50
3308;DHT22;1666;48.898;9.182;2022-10-17T08:23:09;17.20;10.30
3308;DHT22;1666;48.898;9.182;2022-10-17T08:25:39;17.30;10.00
3308;DHT22;1666;48.898;9.182;2022-10-17T08:28:09;17.40;9.90
3308;DHT22;1666;48.898;9.182;2022-10-17T08:30:39;17.40;9.20
3308;DHT22;1666;48.898;9.182;2022-10-17T08:33:09;17.40;9.20
3308;DHT22;1666;48.898;9.182;2022-10-17T08:35:38;17.50;9.10
3308;DHT22;1666;48.898;9.182;2022-10-17T08:38:11;17.70;7.80
3308;DHT22;1666;48.898;9.182;2022-10-17T08:40:48;17.70;6.60
3308;DHT22;1666;48.898;9.182;2022-10-17T08:43:28;17.80;5.60
3308;DHT22;1666;48.898;9.182;2022-10-17T08:46:04;17.90;4.40
3308;DHT22;1666;48.898;9.182;2022-10-17T08:48:38;18.00;3.10
3308;DHT22;1666;48.898;9.182;2022-10-17T08:51:16;18.30;2.50
3308;DHT22;1666;48.898;9.182;2022-10-17T08:53:52;18.30;1.60
3308;DHT22;1666;48.898;9.182;2022-10-17T08:56:26;18.30;1.80
3308;DHT22;1666;48.898;9.182;2022-10-17T08:59:18;18.40;1.70
3308;DHT22;1666;48.898;9.182;2022-10-17T09:01:53;18.30;1.00
3308;DHT22;1666;48.898;9.182;2022-10-17T09:04:45;18.30;1.40
3308;DHT22;1666;48.898;9.182;2022-10-17T09:07:20;18.50;1.00
3308;DHT22;1666;48.898;9.182;2022-10-17T09:09:59;18.70;1.00
3308;DHT22;1666;48.898;9.182;2022-10-17T09:12:34;18.70;1.00
3308;DHT22;1666;48.898;9.182;2022-10-17T09:15:30;18.80;1.00
3308;DHT22;1666;48.898;9.182;2022-10-17T09:18:10;18.80;1.00
3308;DHT22;1666;48.898;9.182;2022-10-17T09:20:48;18.90;1.00
3308;DHT22;1666;48.898;9.182;2022-10-17T09:23:22;18.90;1.00
3308;DHT22;1666;48.898;9.182;2022-10-17T09:25:57;19.00;1.00
3308;DHT22;1666;48.898;9.182;2022-10-17T09:28:31;18.90;1.00
3308;DHT22;1666;48.898;9.182;2022-10-17T09:31:03;19.00;1.00
3308;DHT22;1666;48.898;9.182;2022-10-17T09:33:37;19.00;1.00
3308;DHT22;1666;48.898;9.182;2022-10-17T09:36:24;19.00;1.00
3308;DHT22;1666;48.898;9.182;2022-10-17T09:38:57;19.10;1.00
3308;DHT22;1666;48.898;9.182;2022-10-17T09:41:34;19.10;1.00
3308;DHT22;1666;48.898;9.182;2022-10-17T09:44:15;19.20;1.00
3308;DHT22;1666;48.898;9.182;2022-10-17T09:47:05;19.40;1.00
3308;DHT22;1666;48.898;9.182;2022-10-17T09:49:37;19.50;1.00
3308;DHT22;1666;48.898;9.182;2022-10-17T09:52:11;19.70;1.00
3308;DHT22;1666;48.898;9.182;2022-10-17T09:54:45;19.90;1.00
3308;DHT22;1666;48.898;9.182;2022-10-17T09:57:19;19.90;1.00
3308;DHT22;1666;48.898;9.182;2022-10-17T09:59:56;20.00;1.00
3308;DHT22;1666;48.898;9.182;2022-10-17T10:02:28;20.10;1.00
3308;DHT22;1666;48.898;9.182;2022-10-17T10:05:04;20.30;1.00
3308;DHT22;1666;48.898;9.182;2022-10-17T10:07:36;20.40;1.00
3308;DHT22;1666;48.898;9.182;2022-10-17T10:10:22;20.60;1.00
3308;DHT22;1666;48.898;9.182;2022-10-17T10:13:16;20.80;1.00
3308;DHT22;1666;48.898;9.182;2022-10-17T10:15:48;20.80;1.00
3308;DHT22;1666;48.898;9.182;2022-10-17T10:18:30;20.80;1.00
3308;DHT22;1666;48.898;9.182;2022-10-17T10:21:07;20.90;1.00
3308;DHT22;1666;48.898;9.182;2022-10-17T10:23:40;20.80;1.00
3308;DHT22;1666;48.898;9.182;2022-10-17T10:26:19;21.00;1.00
3308;DHT22;1666;48.898;9.182;2022-10-17T10:28:55;21.00;1.00
3308;DHT22;1666;48.898;9.182;2022-10-17T10:31:34;21.00;1.00
3308;DHT22;1666;48.898;9.182;2022-10-17T10:34:18;21.10;1.00
3308;DHT22;1666;48.898;9.182;2022-10-17T10:36:52;21.20;1.00
3308;DHT22;1666;48.898;9.182;2022-10-17T10:39:34;21.30;1.00
3308;DHT22;1666;48.898;9.182;2022-10-17T10:42:07;21.50;1.00
3308;DHT22;1666;48.898;9.182;2022-10-17T10:44:48;21.60;1.00
3308;DHT22;1666;48.898;9.182;2022-10-17T10:47:21;21.80;1.00
3308;DHT22;1666;48.898;9.182;2022-10-17T10:50:08;21.90;1.00
3308;DHT22;1666;48.898;9.182;2022-10-17T10:52:49;21.90;1.00
3308;DHT22;1666;48.898;9.182;2022-10-17T10:55:25;22.00;1.00
3308;DHT22;1666;48.898;9.182;2022-10-17T10:57:59;22.10;1.00
3308;DHT22;1666;48.898;9.182;2022-10-17T11:00:33;22.30;1.00
3308;DHT22;1666;48.898;9.182;2022-10-17T11:03:10;22.30;1.00
3308;DHT22;1666;48.898;9.182;2022-10-17T11:05:46;22.30;1.00
3308;DHT22;1666;48.898;9.182;2022-10-17T11:08:24;22.40;1.00
3308;DHT22;1666;48.898;9.182;2022-10-17T11:11:11;22.40;1.00
3308;DHT22;1666;48.898;9.182;2022-10-17T11:13:47;22.60;1.00
3308;DHT22;1666;48.898;9.182;2022-10-17T11:16:29;22.60;1.00
3308;DHT22;1666;48.898;9.182;2022-10-17T11:19:08;22.60;1.00
3308;DHT22;1666;48.898;9.182;2022-10-17T11:21:45;22.70;1.00
3308;DHT22;1666;48.898;9.182;2022-10-17T11:24:23;22.70;1.00
3308;DHT22;1666;48.898;9.182;2022-10-17T11:26:55;22.90;1.00
3308;DHT22;1666;48.898;9.182;2022-10-17T11:29:28;22.80;1.00
3308;DHT22;1666;48.898;9.182;2022-10-17T11:32:04;22.90;1.00
3308;DHT22;1666;48.898;9.182;2022-10-17T11:34:39;22.90;1.00
3308;DHT22;1666;48.898;9.182;2022-10-17T11:37:19;23.00;1.00
3308;DHT22;1666;48.898;9.182;2022-10-17T11:39:53;23.20;1.00
3308;DHT22;1666;48.898;9.182;2022-10-17T11:42:26;23.20;1.00
3308;DHT22;1666;48.898;9.182;2022-10-17T11:45:01;23.50;1.00
3308;DHT22;1666;48.898;9.182;2022-10-17T11:47:41;23.60;1.00
3308;DHT22;1666;48.898;9.182;2022-10-17T11:50:19;23.70;1.00
3308;DHT22;1666;48.898;9.182;2022-10-17T11:53:13;23.60;1.00
3308;DHT22;1666;48.898;9.182;2022-10-17T11:55:43;23.70;1.00
3308;DHT22;1666;48.898;9.182;2022-10-17T11:58:26;23.70;1.00
3308;DHT22;1666;48.898;9.182;2022-10-17T12:01:08;23.80;1.00
3308;DHT22;1666;48.898;9.182;2022-10-17T12:03:56;24.00;1.00
3308;DHT22;1666;48.898;9.182;2022-10-17T12:06:40;24.10;1.00
3308;DHT22;1666;48.898;9.182;2022-10-17T12:09:19;24.20;1.00
3308;DHT22;1666;48.898;9.182;2022-10-17T12:11:55;24.30;1.00
3308;DHT22;1666;48.898;9.182;2022-10-17T12:14:39;24.20;1.00
3308;DHT22;1666;48.898;9.182;2022-10-17T12:17:28;24.30;1.00
3308;DHT22;1666;48.898;9.182;2022-10-17T12:20:36;24.20;1.00
3308;DHT22;1666;48.898;9.182;2022-10-17T12:23:25;24.40;1.00
3308;DHT22;1666;48.898;9.182;2022-10-17T12:25:57;24.40;1.00
3308;DHT22;1666;48.898;9.182;2022-10-17T12:28:32;24.40;1.00
3308;DHT22;1666;48.898;9.182;2022-10-17T12:31:04;24.40;1.00
3308;DHT22;1666;48.898;9.182;2022-10-17T12:33:37;24.40;1.00
3308;DHT22;1666;48.898;9.182;2022-10-17T12:36:46;24.50;1.00
3308;DHT22;1666;48.898;9.182;2022-10-17T12:39:42;24.40;1.00
3308;DHT22;1666;48.898;9.182;2022-10-17T12:42:47;24.30;1.00
3308;DHT22;1666;48.898;9.182;2022-10-17T12:45:48;24.30;1.00
3308;DHT22;1666;48.898;9.182;2022-10-17T12:54:39;24.40;1.00
3308;DHT22;1666;48.898;9.182;2022-10-17T12:57:17;24.30;1.00
3308;DHT22;1666;48.898;9.182;2022-10-17T12:59:49;24.20;1.00
3308;DHT22;1666;48.898;9.182;2022-10-17T13:02:26;24.00;1.00
3308;DHT22;1666;48.898;9.182;2022-10-17T13:05:06;23.80;1.00
3308;DHT22;1666;48.898;9.182;2022-10-17T13:07:41;23.80;1.00
3308;DHT22;1666;48.898;9.182;2022-10-17T13:10:22;23.70;1.00
3308;DHT22;1666;48.898;9.182;2022-10-17T13:13:15;23.90;1.00
3308;DHT22;1666;48.898;9.182;2022-10-17T13:15:46;23.80;1.00
3308;DHT22;1666;48.898;9.182;2022-10-17T13:18:19;23.80;1.00
3308;DHT22;1666;48.898;9.182;2022-10-17T13:20:58;23.80;1.00
3308;DHT22;1666;48.898;9.182;2022-10-17T13:23:31;23.90;1.00
3308;DHT22;1666;48.898;9.182;2022-10-17T13:26:13;23.90;1.00
3308;DHT22;1666;48.898;9.182;2022-10-17T13:28:59;23.80;1.00
3308;DHT22;1666;48.898;9.182;2022-10-17T13:31:31;23.90;1.00
3308;DHT22;1666;48.898;9.182;2022-10-17T13:34:03;24.00;1.00
3308;DHT22;1666;48.898;9.182;2022-10-17T13:36:33;24.00;1.00
3308;DHT22;1666;48.898;9.182;2022-10-17T13:39:08;23.80;1.00
3308;DHT22;1666;48.898;9.182;2022-10-17T13:41:45;23.80;1.00
3308;DHT22;1666;48.898;9.182;2022-10-17T13:44:17;23.90;1.00
3308;DHT22;1666;48.898;9.182;2022-10-17T13:46:48;23.80;1.00
3308;DHT22;1666;48.898;9.182;2022-10-17T13:49:20;23.80;1.00
3308;DHT22;1666;48.898;9.182;2022-10-17T13:51:55;23.80;1.00
3308;DHT22;1666;48.898;9.182;2022-10-17T13:54:36;23.80;1.00
3308;DHT22;1666;48.898;9.182;2022-10-17T13:57:18;23.80;1.00
3308;DHT22;1666;48.898;9.182;2022-10-17T13:59:51;23.60;1.00
3308;DHT22;1666;48.898;9.182;2022-10-17T14:02:23;23.60;1.00
3308;DHT22;1666;48.898;9.182;2022-10-17T14:05:00;23.50;1.00
3308;DHT22;1666;48.898;9.182;2022-10-17T14:07:49;23.50;1.00
3308;DHT22;1666;48.898;9.182;2022-10-17T14:10:41;23.40;1.00
3308;DHT22;1666;48.898;9.182;2022-10-17T14:13:20;23.40;1.00
3308;DHT22;1666;48.898;9.182;2022-10-17T14:15:52;23.20;1.00
3308;DHT22;1666;48.898;9.182;2022-10-17T14:18:26;23.20;1.00
3308;DHT22;1666;48.898;9.182;2022-10-17T14:21:06;23.30;1.00
3308;DHT22;1666;48.898;9.182;2022-10-17T14:24:25;23.30;1.00
3308;DHT22;1666;48.898;9.182;2022-10-17T14:27:24;23.20;1.00
3308;DHT22;1666;48.898;9.182;2022-10-17T14:30:03;23.20;1.00
3308;DHT22;1666;48.898;9.182;2022-10-17T14:32:35;23.00;1.00
3308;DHT22;1666;48.898;9.182;2022-10-17T14:35:06;23.00;1.00
3308;DHT22;1666;48.898;9.182;2022-10-17T14:37:58;23.00;1.00
3308;DHT22;1666;48.898;9.182;2022-10-17T14:40:30;23.10;1.00
3308;DHT22;1666;48.898;9.182;2022-10-17T14:43:04;23.10;1.00
3308;DHT22;1666;48.898;9.182;2022-10-17T14:45:38;23.10;1.00
3308;DHT22;1666;48.898;9.182;2022-10-17T14:48:11;23.10;1.00
3308;DHT22;1666;48.898;9.182;2022-10-17T14:51:06;23.10;1.00
3308;DHT22;1666;48.898;9.182;2022-10-17T14:53:37;23.20;1.00
3308;DHT22;1666;48.898;9.182;2022-10-17T14:56:21;23.10;1.00
3308;DHT22;1666;48.898;9.182;2022-10-17T14:58:51;23.10;1.00
3308;DHT22;1666;48.898;9.182;2022-10-17T15:01:24;23.10;1.00
3308;DHT22;1666;48.898;9.182;2022-10-17T15:03:53;23.10;1.00
3308;DHT22;1666;48.898;9.182;2022-10-17T15:06:26;23.10;1.00
3308;DHT22;1666;48.898;9.182;2022-10-17T15:08:57;23.00;1.00
3308;DHT22;1666;48.898;9.182;2022-10-17T15:11:27;23.00;1.00
3308;DHT22;1666;48.898;9.182;2022-10-17T15:13:56;22.90;1.00
3308;DHT22;1666;48.898;9.182;2022-10-17T15:16:31;22.80;1.00
3308;DHT22;1666;48.898;9.182;2022-10-17T15:19:01;22.90;1.00
3308;DHT22;1666;48.898;9.182;2022-10-17T15:21:31;22.80;1.00
3308;DHT22;1666;48.898;9.182;2022-10-17T15:24:12;22.70;1.00
3308;DHT22;1666;48.898;9.182;2022-10-17T15:26:42;22.60;1.00
3308;DHT22;1666;48.898;9.182;2022-10-17T15:29:14;22.60;1.00
3308;DHT22;1666;48.898;9.182;2022-10-17T15:31:47;22.60;1.00
3308;DHT22;1666;48.898;9.182;2022-10-17T15:34:16;22.60;1.00
3308;DHT22;1666;48.898;9.182;2022-10-17T15:36:49;22.50;1.00
3308;DHT22;1666;48.898;9.182;2022-10-17T15:39:19;22.50;1.00
3308;DHT22;1666;48.898;9.182;2022-10-17T15:41:49;22.40;1.00
3308;DHT22;1666;48.898;9.182;2022-10-17T15:44:19;22.30;1.00
3308;DHT22;1666;48.898;9.182;2022-10-17T15:46:52;22.20;1.00
3308;DHT22;1666;48.898;9.182;2022-10-17T15:49:22;22.10;1.00
3308;DHT22;1666;48.898;9.182;2022-10-17T15:51:52;22.10;1.00
3308;DHT22;1666;48.898;9.182;2022-10-17T15:54:22;22.00;1.00
3308;DHT22;1666;48.898;9.182;2022-10-17T15:56:53;22.00;1.00
3308;DHT22;1666;48.898;9.182;2022-10-17T15:59:28;21.90;1.00
3308;DHT22;1666;48.898;9.182;2022-10-17T16:02:01;21.70;1.00
3308;DHT22;1666;48.898;9.182;2022-10-17T16:04:31;21.70;1.00
3308;DHT22;1666;48.898;9.182;2022-10-17T16:07:01;21.70;1.00
3308;DHT22;1666;48.898;9.182;2022-10-17T16:09:31;21.60;1.00
3308;DHT22;1666;48.898;9.182;2022-10-17T16:12:04;21.60;1.00
3308;DHT22;1666;48.898;9.182;2022-10-17T16:14:35;21.60;1.00
3308;DHT22;1666;48.898;9.182;2022-10-17T16:17:08;21.40;1.00
3308;DHT22;1666;48.898;9.182;2022-10-17T16:19:38;21.40;1.00
3308;DHT22;1666;48.898;9.182;2022-10-17T16:22:17;21.20;1.00
3308;DHT22;1666;48.898;9.182;2022-10-17T16:24:48;21.10;1.00
3308;DHT22;1666;48.898;9.182;2022-10-17T16:27:24;21.10;1.00
3308;DHT22;1666;48.898;9.182;2022-10-17T16:29:54;21.00;1.00
3308;DHT22;1666;48.898;9.182;2022-10-17T16:32:27;20.90;1.00
3308;DHT22;1666;48.898;9.182;2022-10-17T16:34:57;20.70;1.00
3308;DHT22;1666;48.898;9.182;2022-10-17T16:37:28;20.60;1.00
3308;DHT22;1666;48.898;9.182;2022-10-17T16:39:58;20.50;1.00
3308;DHT22;1666;48.898;9.182;2022-10-17T16:42:28;20.30;1.00
3308;DHT22;1666;48.898;9.182;2022-10-17T16:44:58;20.10;1.00
3308;DHT22;1666;48.898;9.182;2022-10-17T16:47:31;19.90;1.00
3308;DHT22;1666;48.898;9.182;2022-10-17T16:50:01;19.80;1.00
3308;DHT22;1666;48.898;9.182;2022-10-17T16:52:31;19.70;1.00
3308;DHT22;1666;48.898;9.182;2022-10-17T16:55:01;19.60;1.00
3308;DHT22;1666;48.898;9.182;2022-10-17T16:57:31;19.50;1.00
3308;DHT22;1666;48.898;9.182;2022-10-17T17:00:01;19.40;1.00
3308;DHT22;1666;48.898;9.182;2022-10-17T17:02:35;19.40;1.00
3308;DHT22;1666;48.898;9.182;2022-10-17T17:05:06;19.40;1.00